Time;durP1;ratioP1;P1;durP2;ratioP2;P2;SDS_P1;SDS_P2;PMS_P1;PMS_P2;Temp;Humidity;BMP_temperature;BMP_pressure;BME280_temperature;BME280_humidity;BME280_pressure;Samples;Min_cycle;Max_cycle;Signal;HPM_P1;HPM_P2
2023/01/02 00:01:57;;;;;;;9.57;5.05;;;;;;;10.38;100.00;101010.38;6219356;23;20022;-81
2023/01/02 00:04:23;;;;;;;7.88;4.45;;;;;;;10.40;100.00;101005.38;6192524;23;20068;-81
2023/01/02 00:06:50;;;;;;;13.85;4.72;;;;;;;10.40;100.00;101008.03;6192964;23;20347;-81
2023/01/02 00:09:18;;;;;;;12.00;4.68;;;;;;;10.41;100.00;101004.91;6219019;23;20339;-81
2023/01/02 00:11:45;;;;;;;11.45;4.80;;;;;;;10.43;100.00;100999.16;6219287;23;20024;-81
2023/01/02 00:14:11;;;;;;;8.25;4.95;;;;;;;10.41;100.00;100994.25;6218456;23;20391;-80
2023/01/02 00:16:38;;;;;;;8.98;4.78;;;;;;;10.41;100.00;100990.84;6192186;23;20016;-81
2023/01/02 00:19:07;;;;;;;9.85;5.10;;;;;;;10.41;100.00;100994.25;6218530;23;20020;-80
2023/01/02 00:21:35;;;;;;;7.50;4.90;;;;;;;10.42;100.00;100984.34;6218634;23;20092;-80
2023/01/02 00:24:02;;;;;;;11.60;4.88;;;;;;;10.41;100.00;100988.19;6218980;23;20017;-80
2023/01/02 00:26:29;;;;;;;12.30;5.28;;;;;;;10.41;100.00;100982.88;6192271;23;20025;-79
2023/01/02 00:28:56;;;;;;;9.27;4.97;;;;;;;10.40;100.00;100984.06;6191656;23;20457;-79
2023/01/02 00:31:22;;;;;;;6.88;4.95;;;;;;;10.39;100.00;100977.25;6218605;23;20056;-79
2023/01/02 00:33:49;;;;;;;8.13;4.55;;;;;;;10.39;100.00;100972.69;6218961;23;20017;-79
2023/01/02 00:36:15;;;;;;;9.27;4.53;;;;;;;10.40;100.00;100973.44;6219569;23;20017;-79
2023/01/02 00:38:42;;;;;;;10.98;5.68;;;;;;;10.39;100.00;100975.34;6218912;23;20053;-79
2023/01/02 00:41:09;;;;;;;6.57;4.93;;;;;;;10.39;100.00;100972.69;6217768;23;20478;-78
2023/01/02 00:43:36;;;;;;;9.43;4.80;;;;;;;10.39;100.00;100970.03;6218277;23;20020;-79
2023/01/02 00:46:02;;;;;;;7.05;5.13;;;;;;;10.39;100.00;100972.69;6219006;23;20024;-79
2023/01/02 00:48:37;;;;;;;9.07;4.95;;;;;;;10.38;100.00;100965.88;6218826;23;20423;-79
2023/01/02 00:51:03;;;;;;;6.75;4.75;;;;;;;10.38;100.00;100955.22;6219071;23;20462;-80
2023/01/02 00:53:30;;;;;;;8.73;5.32;;;;;;;10.38;100.00;100946.50;6192300;23;20072;-80
2023/01/02 00:55:56;;;;;;;9.07;4.90;;;;;;;10.37;100.00;100951.06;6218896;23;20068;-79
2023/01/02 00:58:23;;;;;;;9.00;4.72;;;;;;;10.36;100.00;100954.91;6218097;23;20348;-80
2023/01/02 01:00:50;;;;;;;9.27;5.18;;;;;;;10.35;100.00;100953.44;6218710;23;20407;-80
2023/01/02 01:03:17;;;;;;;9.32;4.88;;;;;;;10.33;100.00;100951.19;6219239;23;20096;-80
2023/01/02 01:05:43;;;;;;;12.43;5.25;;;;;;;10.33;100.00;100955.78;6192585;23;20029;-80
2023/01/02 01:08:10;;;;;;;13.57;4.80;;;;;;;10.31;100.00;100948.22;6218941;23;20439;-80
2023/01/02 01:10:37;;;;;;;8.02;5.18;;;;;;;10.31;100.00;100953.53;6218422;23;20017;-80
2023/01/02 01:13:04;;;;;;;11.93;5.25;;;;;;;10.33;100.00;100950.44;6218494;23;20439;-80
2023/01/02 01:15:32;;;;;;;7.20;5.03;;;;;;;10.32;100.00;100946.31;6191784;23;20410;-80
2023/01/02 01:17:59;;;;;;;11.18;5.65;;;;;;;10.35;100.00;100956.09;6192170;23;20017;-80
2023/01/02 01:20:26;;;;;;;9.93;5.20;;;;;;;10.35;100.00;100946.19;6218742;23;20445;-80
2023/01/02 01:22:52;;;;;;;11.10;5.15;;;;;;;10.38;100.00;100943.84;6191970;23;20028;-79
2023/01/02 01:25:19;;;;;;;12.90;5.40;;;;;;;10.40;100.00;100949.47;6191227;23;20457;-79
2023/01/02 01:27:45;;;;;;;19.48;5.80;;;;;;;10.41;100.00;100938.38;6218903;23;20069;-80
2023/01/02 01:30:12;;;;;;;15.20;6.15;;;;;;;10.42;100.00;100944.44;6218695;23;20021;-79
2023/01/02 01:32:39;;;;;;;10.77;5.28;;;;;;;10.43;100.00;100940.59;6192198;23;20017;-79
2023/01/02 01:35:06;;;;;;;9.02;4.72;;;;;;;10.45;100.00;100940.91;6191830;23;20522;-79
2023/01/02 01:37:32;;;;;;;9.05;5.15;;;;;;;10.46;100.00;100942.41;6166987;23;20017;-78
2023/01/02 01:39:59;;;;;;;7.63;5.38;;;;;;;10.46;100.00;100935.16;6218161;23;20032;-78
2023/01/02 01:42:31;;;;;;;11.20;5.22;;;;;;;10.48;100.00;100934.72;6191579;23;20023;-78
2023/01/02 01:44:58;;;;;;;12.48;5.38;;;;;;;10.48;100.00;100932.81;6218693;23;20017;-78
2023/01/02 01:47:32;;;;;;;8.93;5.20;;;;;;;10.49;100.00;100923.66;6218809;23;20024;-78
2023/01/02 01:50:06;;;;;;;8.05;5.25;;;;;;;10.50;100.00;100929.72;6219087;23;20017;-79
2023/01/02 01:52:38;;;;;;;10.50;5.20;;;;;;;10.51;100.00;100928.53;6192204;23;20083;-79
2023/01/02 01:55:27;;;;;;;11.02;5.07;;;;;;;10.52;100.00;100925.44;6217986;23;20497;-78
2023/01/02 01:58:01;;;;;;;16.52;4.80;;;;;;;10.52;100.00;100930.75;6218831;23;20017;-79
2023/01/02 02:00:28;;;;;;;13.13;4.80;;;;;;;10.52;100.00;100932.69;6215350;23;20482;-79
2023/01/02 02:02:59;;;;;;;12.57;5.18;;;;;;;10.53;100.00;100928.84;6190538;23;20092;-79
2023/01/02 02:05:29;;;;;;;10.65;5.47;;;;;;;10.55;100.00;100931.81;6191067;23;20076;-78
2023/01/02 02:08:12;;;;;;;10.13;5.15;;;;;;;10.55;100.00;100937.88;6218316;23;20017;-78
2023/01/02 02:10:40;;;;;;;7.55;5.00;;;;;;;10.54;100.00;100923.09;6216725;23;20076;-78
2023/01/02 02:13:06;;;;;;;10.02;5.03;;;;;;;10.55;100.00;100924.56;6218597;23;20096;-78
2023/01/02 02:16:08;;;;;;;6.97;4.85;;;;;;;10.56;100.00;100927.97;6192166;23;20075;-78
2023/01/02 02:18:37;;;;;;;6.85;4.75;;;;;;;10.56;100.00;100936.72;6218646;23;20049;-78
2023/01/02 02:21:24;;;;;;;10.98;5.30;;;;;;;10.56;100.00;100927.97;6216472;23;20437;-78
2023/01/02 02:24:14;;;;;;;12.60;5.40;;;;;;;10.55;100.00;100929.91;6217490;23;20018;-78
2023/01/02 02:26:54;;;;;;;7.38;4.93;;;;;;;10.57;100.00;100932.88;6218257;23;20079;-78
2023/01/02 02:29:39;;;;;;;12.90;5.57;;;;;;;10.59;100.00;100930.53;6191700;23;20013;-78
2023/01/02 02:32:36;;;;;;;12.70;4.93;;;;;;;10.59;100.00;100927.84;6166629;23;20427;-78
2023/01/02 02:35:30;;;;;;;9.43;5.25;;;;;;;10.59;100.00;100927.13;6191402;23;20017;-78
2023/01/02 02:38:14;;;;;;;9.60;4.93;;;;;;;10.60;100.00;100925.94;6166075;23;20359;-79
2023/01/02 02:41:23;;;;;;;7.90;4.78;;;;;;;10.63;100.00;100925.06;6218055;23;20024;-79
2023/01/02 02:44:00;;;;;;;8.25;4.68;;;;;;;10.64;100.00;100924.63;6217416;23;20017;-79
2023/01/02 02:46:49;;;;;;;8.77;4.85;;;;;;;10.65;100.00;100925.38;6218278;23;20013;-79
2023/01/02 02:49:35;;;;;;;10.48;5.32;;;;;;;10.66;100.00;100919.63;6219263;23;20017;-78
2023/01/02 02:52:07;;;;;;;9.95;4.60;;;;;;;10.70;100.00;100908.84;6218312;23;20027;-78
2023/01/02 02:54:41;;;;;;;12.35;4.75;;;;;;;10.69;100.00;100913.44;6216071;23;20505;-78
2023/01/02 02:57:09;;;;;;;6.82;4.35;;;;;;;10.72;100.00;100916.41;6218248;23;20045;-79
2023/01/02 02:59:36;;;;;;;16.50;5.03;;;;;;;10.75;100.00;100908.28;6218051;23;20021;-78
2023/01/02 03:02:04;;;;;;;6.75;4.35;;;;;;;10.78;100.00;100904.00;6217914;23;20024;-79
2023/01/02 03:04:30;;;;;;;10.10;4.35;;;;;;;10.80;100.00;100907.69;6217765;23;20017;-79
2023/01/02 03:07:09;;;;;;;6.93;4.85;;;;;;;10.83;100.00;100911.41;6191630;23;20051;-79
2023/01/02 03:09:51;;;;;;;6.97;4.38;;;;;;;10.85;100.00;100912.47;6219121;23;20103;-79
2023/01/02 03:12:21;;;;;;;9.38;4.18;;;;;;;10.86;100.00;100905.22;6219567;23;20020;-79
2023/01/02 03:14:57;;;;;;;6.90;3.95;;;;;;;10.89;100.00;100905.09;6219693;23;20028;-79
2023/01/02 03:17:48;;;;;;;7.35;4.22;;;;;;;10.91;100.00;100899.31;6219230;23;20096;-79
2023/01/02 03:20:21;;;;;;;8.55;4.43;;;;;;;10.95;100.00;100908.66;6219223;23;20021;-80
2023/01/02 03:22:52;;;;;;;8.25;4.00;;;;;;;10.96;100.00;100899.50;6219028;23;20104;-80
2023/01/02 03:25:21;;;;;;;5.95;3.72;;;;;;;10.98;100.00;100899.06;6219243;23;20021;-82
2023/01/02 03:27:50;;;;;;;8.50;4.20;;;;;;;11.01;100.00;100901.59;6192337;23;20017;-80
2023/01/02 03:30:20;;;;;;;7.07;3.78;;;;;;;11.03;100.00;100895.81;6217989;23;20017;-80
2023/01/02 03:32:51;;;;;;;13.10;3.92;;;;;;;11.07;100.00;100903.69;6219719;23;20076;-79
2023/01/02 03:35:24;;;;;;;5.82;3.60;;;;;;;11.08;100.00;100899.84;6219578;23;20451;-80
2023/01/02 03:37:54;;;;;;;11.10;3.72;;;;;;;11.10;100.00;100900.91;6192137;23;20021;-80
2023/01/02 03:40:25;;;;;;;7.80;3.55;;;;;;;11.11;100.00;100898.97;6167272;23;20395;-80
2023/01/02 03:43:07;;;;;;;9.85;3.80;;;;;;;11.13;100.00;100901.94;6218873;23;20013;-82
2023/01/02 03:45:37;;;;;;;;;;;;;;;11.14;100.00;100890.09;6219855;23;20017;-80
2023/01/02 03:48:17;;;;;;;8.48;3.90;;;;;;;11.16;100.00;100901.06;6219514;23;19931;-80
2023/01/02 03:50:51;;;;;;;8.95;3.63;;;;;;;11.18;100.00;100896.03;6219065;23;20462;-80
2023/01/02 03:53:22;;;;;;;7.82;3.33;;;;;;;11.18;100.00;100902.13;6219427;23;20037;-82
2023/01/02 03:56:01;;;;;;;8.73;3.65;;;;;;;11.21;100.00;100903.13;6192517;23;20064;-80
2023/01/02 03:58:49;;;;;;;7.43;3.60;;;;;;;11.22;100.00;100901.94;6219574;23;20017;-80
2023/01/02 04:01:33;;;;;;;5.68;3.58;;;;;;;11.23;100.00;100911.44;6192961;23;20438;-79
2023/01/02 04:04:17;;;;;;;12.07;3.67;;;;;;;11.22;100.00;100907.28;6217914;23;20017;-80
2023/01/02 04:06:54;;;;;;;13.48;3.97;;;;;;;11.23;100.00;100904.19;6193540;23;20017;-82
2023/01/02 04:09:26;;;;;;;6.15;3.33;;;;;;;11.24;100.00;100921.66;6192498;23;20486;-80
2023/01/02 04:12:04;;;;;;;14.23;3.70;;;;;;;11.25;100.00;100912.47;6193141;23;20502;-82
2023/01/02 04:14:44;;;;;;;5.70;3.45;;;;;;;11.27;100.00;100912.78;6219619;23;20079;-81
2023/01/02 04:17:17;;;;;;;9.43;3.35;;;;;;;11.30;100.00;100911.16;6192492;23;20017;-81
2023/01/02 04:19:51;;;;;;;10.77;3.83;;;;;;;11.29;100.00;100912.34;6219011;23;20096;-81
2023/01/02 04:22:23;;;;;;;5.50;3.28;;;;;;;11.29;100.00;100909.69;6219713;23;20384;-81
2023/01/02 04:24:57;;;;;;;8.43;3.53;;;;;;;11.30;100.00;100917.22;6192935;23;20443;-80
2023/01/02 04:27:28;;;;;;;5.45;2.95;;;;;;;11.31;100.00;100923.31;6218251;23;20432;-80
2023/01/02 04:29:55;;;;;;;6.80;3.53;;;;;;;11.30;100.00;100921.81;6167811;23;20017;-80
2023/01/02 04:32:26;;;;;;;4.60;3.30;;;;;;;11.32;100.00;100922.13;6192624;23;20024;-80
2023/01/02 04:34:54;;;;;;;8.57;3.80;;;;;;;11.32;100.00;100922.13;6192214;23;20021;-78
2023/01/02 04:37:33;;;;;;;10.20;3.78;;;;;;;11.32;100.00;100928.19;6219423;23;20013;-80
2023/01/02 04:40:07;;;;;;;11.98;4.30;;;;;;;11.32;100.00;100930.13;6192432;23;20439;-80
2023/01/02 04:42:34;;;;;;;8.00;3.80;;;;;;;11.31;100.00;100929.38;6212361;23;20024;-80
2023/01/02 04:45:00;;;;;;;5.78;4.15;;;;;;;11.31;100.00;100928.63;6212842;23;20418;-80
2023/01/02 04:47:27;;;;;;;12.35;3.90;;;;;;;11.31;100.00;100932.03;6187722;23;20018;-80
2023/01/02 04:49:54;;;;;;;9.07;4.10;;;;;;;11.31;100.00;100925.97;6186706;23;20033;-80
2023/01/02 04:52:20;;;;;;;8.75;4.07;;;;;;;11.29;100.00;100926.41;6187858;23;20017;-80
2023/01/02 04:54:47;;;;;;;9.48;4.40;;;;;;;11.30;100.00;100925.22;6187933;23;20486;-80
2023/01/02 04:57:13;;;;;;;8.30;4.05;;;;;;;11.29;100.00;100921.06;6187854;23;20057;-80
2023/01/02 04:59:40;;;;;;;7.70;4.38;;;;;;;11.29;100.00;100921.06;6189310;23;20018;-81
2023/01/02 05:02:06;;;;;;;9.88;4.15;;;;;;;11.29;100.00;100923.75;6189213;23;20021;-81
2023/01/02 05:04:33;;;;;;;6.65;3.60;;;;;;;11.29;100.00;100926.41;6188555;23;20013;-81
2023/01/02 05:07:01;;;;;;;6.97;3.85;;;;;;;11.29;100.00;100933.66;6189163;23;20017;-80
2023/01/02 05:09:28;;;;;;;7.18;3.50;;;;;;;11.30;100.00;100932.47;6212384;23;20439;-81
2023/01/02 05:11:54;;;;;;;8.02;3.80;;;;;;;11.29;100.00;100939.00;6187208;23;20080;-81
2023/01/02 05:14:29;;;;;;;8.77;4.05;;;;;;;11.29;100.00;100936.31;6187169;23;20072;-80
2023/01/02 05:16:56;;;;;;;13.55;3.83;;;;;;;11.28;100.00;100930.25;6189248;23;20045;-80
2023/01/02 05:19:23;;;;;;;3.72;3.35;;;;;;;11.29;100.00;100939.00;6187098;23;20020;-79
2023/01/02 05:24:34;;;;;;;5.05;4.03;;;;;;;11.30;100.00;100962.53;6189189;23;20021;-80
2023/01/02 05:27:03;;;;;;;6.03;3.63;;;;;;;11.30;100.00;100964.47;6187336;23;20032;-80
2023/01/02 05:29:29;;;;;;;4.20;3.85;;;;;;;11.30;100.00;100964.47;6188523;23;20089;-81
2023/01/02 05:31:56;;;;;;;8.70;4.20;;;;;;;11.31;100.00;100966.69;6188627;23;20443;-79
2023/01/02 05:34:22;;;;;;;8.15;3.88;;;;;;;11.32;100.00;100975.44;6188963;23;20014;-78
2023/01/02 05:36:49;;;;;;;8.90;4.65;;;;;;;11.30;100.00;100965.22;6189116;23;20022;-78
2023/01/02 05:39:18;;;;;;;13.85;4.30;;;;;;;11.29;100.00;100966.38;6213023;23;20024;-78
2023/01/02 05:41:44;;;;;;;6.25;4.32;;;;;;;11.27;100.00;100960.75;6186509;23;20022;-78
2023/01/02 05:44:11;;;;;;;6.90;4.28;;;;;;;11.28;100.00;100972.91;6187817;23;20020;-78
2023/01/02 05:46:38;;;;;;;6.80;4.13;;;;;;;11.26;100.00;100985.16;6186541;23;20092;-78
2023/01/02 05:49:06;;;;;;;8.18;4.63;;;;;;;11.24;100.00;100982.19;6189121;23;20017;-78
2023/01/02 05:51:33;;;;;;;8.52;4.57;;;;;;;11.23;100.00;100986.03;6188824;23;20021;-78
2023/01/02 05:54:00;;;;;;;6.53;3.90;;;;;;;11.22;100.00;100995.22;6187178;23;20024;-78
2023/01/02 05:56:28;;;;;;;6.60;4.80;;;;;;;11.20;100.00;101030.28;6188739;23;20450;-78
2023/01/02 05:58:55;;;;;;;3.25;2.95;;;;;;;11.09;100.00;101056.59;6188885;23;20522;-78
2023/01/02 06:01:25;;;;;;;2.00;1.55;;;;;;;10.84;100.00;101064.69;6186424;23;20064;-78
2023/01/02 06:03:55;;;;;;;0.77;0.77;;;;;;;10.61;100.00;101068.53;6213171;23;20034;-78
2023/01/02 06:06:30;;;;;;;0.88;0.88;;;;;;;10.43;100.00;101095.72;6188441;23;20535;-78
2023/01/02 06:08:58;;;;;;;1.10;0.70;;;;;;;10.28;100.00;101097.34;6187414;23;20059;-79
2023/01/02 06:11:27;;;;;;;0.70;0.70;;;;;;;10.20;100.00;101088.09;6187605;23;20022;-81
2023/01/02 06:13:53;;;;;;;1.10;1.10;;;;;;;10.11;100.00;101099.34;6160587;23;20017;-77
2023/01/02 06:16:21;;;;;;;0.70;0.70;;;;;;;10.07;100.00;101105.94;6210612;23;20025;-80
2023/01/02 06:18:48;;;;;;;1.08;0.90;;;;;;;9.96;100.00;101106.28;6188313;23;20084;-80
2023/01/02 06:21:16;;;;;;;0.98;0.90;;;;;;;9.90;100.00;101116.72;6189872;23;20343;-79
2023/01/02 06:23:43;;;;;;;1.00;1.00;;;;;;;9.85;100.00;101130.53;6190016;23;20020;-81
2023/01/02 06:26:16;;;;;;;1.10;1.10;;;;;;;9.80;100.00;101136.38;6189414;23;20018;-83
2023/01/02 06:28:44;;;;;;;0.80;0.80;;;;;;;9.74;100.00;101148.69;6188056;23;20093;-82
2023/01/02 06:31:13;;;;;;;1.35;1.20;;;;;;;9.68;100.00;101143.16;6188922;23;20075;-83
2023/01/02 06:33:41;;;;;;;1.50;1.40;;;;;;;9.64;100.00;101150.47;6187866;23;20056;-83
2023/01/02 06:36:16;;;;;;;1.50;1.40;;;;;;;9.60;100.00;101167.69;6189591;23;20021;-82
2023/01/02 06:38:44;;;;;;;1.45;1.35;;;;;;;9.57;100.00;101169.31;6188655;23;20017;-83
2023/01/02 06:41:12;;;;;;;3.05;1.70;;;;;;;9.50;100.00;101177.47;6190646;23;20025;-81
2023/01/02 06:43:47;;;;;;;1.50;1.50;;;;;;;9.45;100.00;101191.25;6221017;23;20431;-82
2023/01/02 06:46:17;;;;;;;1.60;1.50;;;;;;;9.40;100.00;101191.03;6194420;23;20025;-83
2023/01/02 06:48:45;;;;;;;1.60;1.50;;;;;;;9.34;100.00;101202.16;6193750;23;20443;-82
2023/01/02 06:51:14;;;;;;;1.30;1.30;;;;;;;9.32;100.00;101203.75;6220768;23;20013;-82
2023/01/02 06:53:42;;;;;;;1.55;1.45;;;;;;;9.28;100.00;101209.16;6194655;23;20425;-80
2023/01/02 06:56:10;;;;;;;1.50;1.45;;;;;;;9.25;100.00;101209.25;6220833;23;20443;-79
2023/01/02 06:58:38;;;;;;;2.15;1.45;;;;;;;9.23;100.00;101224.84;6194090;23;20037;-80
2023/01/02 07:01:08;;;;;;;1.70;1.60;;;;;;;9.21;100.00;101233.22;6219988;23;20433;-79
2023/01/02 07:03:35;;;;;;;1.75;1.60;;;;;;;9.19;100.00;101234.84;6221112;23;20017;-80
2023/01/02 07:06:06;;;;;;;1.85;1.75;;;;;;;9.14;100.00;101241.41;6220771;23;20447;-78
2023/01/02 07:08:32;;;;;;;1.77;1.67;;;;;;;9.14;100.00;101248.63;6194813;23;20017;-78
2023/01/02 07:11:14;;;;;;;1.95;1.85;;;;;;;9.12;100.00;101261.56;6220808;23;20080;-80
2023/01/02 07:13:44;;;;;;;3.10;1.95;;;;;;;9.12;100.00;101258.91;6220219;23;20014;-77
2023/01/02 07:16:13;;;;;;;2.20;2.03;;;;;;;9.08;100.00;101256.34;6219002;23;20028;-79
2023/01/02 07:18:42;;;;;;;1.92;1.83;;;;;;;9.07;100.00;101260.16;6221278;23;20027;-80
2023/01/02 07:21:10;;;;;;;2.03;1.83;;;;;;;9.02;100.00;101258.75;6193854;23;20020;-80
2023/01/02 07:23:37;;;;;;;1.98;1.80;;;;;;;9.00;100.00;101271.69;6221025;23;20018;-80
2023/01/02 07:26:05;;;;;;;2.03;1.92;;;;;;;8.97;100.00;101261.16;6221023;23;20021;-79
2023/01/02 07:28:33;;;;;;;2.22;2.13;;;;;;;8.97;100.00;101269.13;6220402;23;20371;-79
2023/01/02 07:31:03;;;;;;;2.35;1.85;;;;;;;8.95;100.00;101282.81;6220813;23;20013;-79
2023/01/02 07:33:30;;;;;;;2.08;1.95;;;;;;;8.94;100.00;101297.25;6193837;23;20080;-80
2023/01/02 07:35:59;;;;;;;2.15;2.03;;;;;;;8.94;100.00;101304.47;6193977;23;20025;-79
2023/01/02 07:38:25;;;;;;;4.63;2.60;;;;;;;8.94;100.00;101310.53;6220769;23;20017;-79
2023/01/02 07:40:52;;;;;;;3.60;2.45;;;;;;;8.94;100.00;101320.41;6220341;23;20017;-79
2023/01/02 07:43:19;;;;;;;2.97;2.60;;;;;;;8.92;100.00;101336.75;6219942;23;20024;-82
2023/01/02 07:45:46;;;;;;;6.28;2.58;;;;;;;8.91;100.00;101345.88;6193472;23;20017;-79
2023/01/02 07:48:16;;;;;;;3.38;2.85;;;;;;;8.90;100.00;101344.38;6219181;23;20020;-78
2023/01/02 07:50:43;;;;;;;4.90;2.72;;;;;;;8.94;100.00;101362.88;6194019;23;20021;-79
2023/01/02 07:53:09;;;;;;;3.05;2.63;;;;;;;8.90;100.00;101370.94;6193384;23;20041;-78
2023/01/02 07:55:36;;;;;;;4.65;2.55;;;;;;;8.86;100.00;101372.91;6220341;23;20451;-79
2023/01/02 07:58:02;;;;;;;2.47;2.30;;;;;;;8.82;100.00;101377.53;6219963;23;20525;-79
2023/01/02 08:00:29;;;;;;;6.13;2.22;;;;;;;8.81;100.00;101386.66;6169051;23;20025;-80
2023/01/02 08:02:55;;;;;;;6.25;2.10;;;;;;;8.77;100.00;101399.28;6220219;23;20470;-76
2023/01/02 08:05:22;;;;;;;1.60;1.50;;;;;;;8.74;100.00;101413.38;6220499;23;20072;-77
2023/01/02 08:07:48;;;;;;;1.50;1.40;;;;;;;8.73;100.00;101413.78;6193339;23;20024;-80
2023/01/02 08:10:15;;;;;;;2.00;1.60;;;;;;;8.69;100.00;101417.25;6194163;23;20013;-79
2023/01/02 08:12:41;;;;;;;2.42;1.50;;;;;;;8.66;100.00;101433.25;6219877;23;20410;-80
2023/01/02 08:15:08;;;;;;;1.58;1.48;;;;;;;8.63;100.00;101434.81;6220306;23;20029;-80
2023/01/02 08:17:35;;;;;;;2.25;1.48;;;;;;;8.62;100.00;101440.53;6218916;23;20013;-78
2023/01/02 08:20:01;;;;;;;2.03;1.92;;;;;;;8.61;100.00;101447.75;6219983;23;20017;-78
2023/01/02 08:22:33;;;;;;;2.28;1.70;;;;;;;8.57;100.00;101444.41;6220721;23;20055;-80
2023/01/02 08:25:00;;;;;;;1.90;1.65;;;;;;;8.56;100.00;101447.47;6193270;23;20025;-79
2023/01/02 08:27:27;;;;;;;2.92;2.13;;;;;;;8.54;100.00;101450.53;6219619;23;20096;-78
2023/01/02 08:29:53;;;;;;;2.15;1.80;;;;;;;8.55;100.00;101453.94;6220440;23;20014;-81
2023/01/02 08:32:20;;;;;;;2.85;1.98;;;;;;;8.57;100.00;101462.22;6220488;23;20013;-81
2023/01/02 08:34:46;;;;;;;2.28;1.98;;;;;;;8.55;100.00;101453.94;6219333;23;20017;-81
2023/01/02 08:37:13;;;;;;;2.35;1.90;;;;;;;8.55;100.00;101464.53;6220793;23;20041;-79
2023/01/02 08:39:40;;;;;;;2.03;1.83;;;;;;;8.53;100.00;101459.66;6220371;23;20399;-84
2023/01/02 08:42:07;;;;;;;5.00;2.20;;;;;;;8.53;100.00;101472.16;6218927;23;20429;-78
2023/01/02 08:44:36;;;;;;;2.55;2.05;;;;;;;8.53;100.00;101472.91;6220220;23;20095;-79
2023/01/02 08:47:04;;;;;;;2.83;1.95;;;;;;;8.54;100.00;101471.75;6220324;23;20083;-82
2023/01/02 08:49:31;;;;;;;3.58;2.03;;;;;;;8.53;100.00;101478.22;6194045;23;20072;-86
2023/01/02 08:51:57;;;;;;;6.85;2.30;;;;;;;8.52;100.00;101483.94;6193598;23;20017;-79
2023/01/02 08:54:24;;;;;;;3.30;2.03;;;;;;;8.52;100.00;101489.25;6220358;23;20025;-82
2023/01/02 08:56:50;;;;;;;3.70;2.15;;;;;;;8.51;100.00;101495.69;6192612;23;20021;-82
2023/01/02 08:59:17;;;;;;;2.50;2.30;;;;;;;8.48;100.00;101502.56;6193982;23;20083;-79
2023/01/02 09:01:43;;;;;;;5.97;2.63;;;;;;;8.47;100.00;101506.38;6168620;23;20465;-82
2023/01/02 09:04:10;;;;;;;3.55;2.60;;;;;;;8.47;100.00;101514.34;6192829;23;20418;-82
2023/01/02 09:06:41;;;;;;;3.85;2.67;;;;;;;8.45;100.00;101527.25;6169057;23;20027;-82
2023/01/02 09:09:08;;;;;;;3.50;3.20;;;;;;;8.46;100.00;101526.09;6219523;23;20059;-79
2023/01/02 09:11:50;;;;;;;5.22;3.45;;;;;;;8.46;100.00;101528.00;6219841;23;20025;-79
2023/01/02 09:14:19;;;;;;;5.68;2.80;;;;;;;8.47;100.00;101540.88;6220305;23;20041;-79
2023/01/02 09:16:46;;;;;;;4.57;2.50;;;;;;;8.51;100.00;101540.81;6192911;23;20017;-79
2023/01/02 09:19:13;;;;;;;3.83;2.78;;;;;;;8.50;100.00;101541.97;6219567;23;20017;-80
2023/01/02 09:21:40;;;;;;;5.47;2.83;;;;;;;8.52;100.00;101552.94;6219821;23;20025;-80
2023/01/02 09:24:07;;;;;;;3.75;2.80;;;;;;;8.52;100.00;101545.72;6192234;23;20052;-79
2023/01/02 09:26:34;;;;;;;3.42;2.70;;;;;;;8.53;100.00;101551.78;6220176;23;20021;-79
2023/01/02 09:29:00;;;;;;;5.00;3.00;;;;;;;8.54;100.00;101564.63;6219793;23;20019;-79
2023/01/02 09:31:27;;;;;;;5.13;3.05;;;;;;;8.56;100.00;101566.88;6220032;23;20106;-82
2023/01/02 09:33:54;;;;;;;4.07;2.90;;;;;;;8.57;100.00;101569.13;6192771;23;20025;-78
2023/01/02 09:36:21;;;;;;;4.30;3.70;;;;;;;8.62;100.00;101570.59;6168495;23;20021;-78
2023/01/02 09:38:53;;;;;;;4.22;2.67;;;;;;;8.66;100.00;101579.25;6219905;23;20021;-79
2023/01/02 09:41:19;;;;;;;;;;;;;;;8.69;100.00;101581.09;6218486;23;20087;-79
2023/01/02 09:44:36;;;;;;;3.35;3.05;;;;;;;8.68;100.00;101585.63;6193162;23;19924;-77
2023/01/02 09:47:15;;;;;;;3.47;3.17;;;;;;;8.65;100.00;101577.72;6160433;23;20335;-78
2023/01/02 09:50:17;;;;;;;3.63;3.33;;;;;;;8.65;100.00;101589.09;6219955;23;20048;-79
2023/01/02 09:52:52;;;;;;;6.53;3.67;;;;;;;8.65;100.00;101596.31;6219675;23;20017;-77
2023/01/02 09:55:44;;;;;;;3.20;3.00;;;;;;;8.63;100.00;101599.38;6220082;23;20017;-79
2023/01/02 09:58:33;;;;;;;4.22;2.92;;;;;;;8.62;100.00;101607.75;6182706;23;20028;-78
2023/01/02 10:01:00;;;;;;;5.85;2.65;;;;;;;8.59;100.00;101611.19;6219627;23;20470;-80
2023/01/02 10:03:33;;;;;;;5.10;3.05;;;;;;;8.59;100.00;101614.59;6218372;23;20013;-80
2023/01/02 10:06:06;;;;;;;3.40;2.53;;;;;;;8.58;100.00;101623.72;6217677;23;20502;-78
2023/01/02 10:08:46;;;;;;;4.40;2.17;;;;;;;8.59;100.00;101619.16;6219448;23;20013;-80
2023/01/02 10:11:38;;;;;;;2.70;1.80;;;;;;;8.62;100.00;101621.00;6219458;23;20013;-82
2023/01/02 10:14:34;;;;;;;2.47;1.55;;;;;;;8.63;100.00;101627.81;6167421;23;20021;-78
2023/01/02 10:17:12;;;;;;;6.03;1.52;;;;;;;8.64;100.00;101621.34;6195138;23;20040;-80
2023/01/02 10:20:00;;;;;;;5.28;1.90;;;;;;;8.70;100.00;101614.44;6219794;23;20021;-80
2023/01/02 10:22:38;;;;;;;2.20;1.73;;;;;;;8.75;100.00;101613.97;6219244;23;20509;-79
2023/01/02 10:25:15;;;;;;;3.95;2.78;;;;;;;8.76;100.00;101617.38;6192999;23;20014;-80
2023/01/02 10:27:48;;;;;;;4.18;1.98;;;;;;;8.79;100.00;101630.59;6219810;23;20091;-81
2023/01/02 10:30:21;;;;;;;9.23;1.90;;;;;;;8.81;100.00;101607.03;6219727;23;20017;-79
2023/01/02 10:33:12;;;;;;;3.47;1.50;;;;;;;8.86;100.00;101611.13;6219772;23;20025;-79
2023/01/02 10:35:46;;;;;;;2.58;1.38;;;;;;;8.88;100.00;101614.13;6219886;23;20472;-81
2023/01/02 10:38:16;;;;;;;4.95;1.30;;;;;;;8.93;100.00;101625.03;6219309;23;20017;-76
2023/01/02 10:40:44;;;;;;;5.60;1.52;;;;;;;9.00;100.00;101614.28;6219485;23;20527;-79
2023/01/02 10:43:12;;;;;;;1.95;0.95;;;;;;;9.05;100.00;101612.31;6219023;23;20024;-82
2023/01/02 10:45:40;;;;;;;1.52;1.27;;;;;;;9.09;100.00;101618.31;6219521;23;20013;-81
2023/01/02 10:48:09;;;;;;;5.20;1.35;;;;;;;9.07;100.00;101629.34;6191954;23;20417;-81
2023/01/02 10:50:45;;;;;;;7.25;1.42;;;;;;;9.06;100.00;101632.41;6192373;23;20021;-81
2023/01/02 10:53:27;;;;;;;5.93;1.42;;;;;;;9.05;100.00;101636.22;6193029;23;20017;-78
2023/01/02 10:55:53;;;;;;;3.22;1.30;;;;;;;9.08;100.00;101643.38;6219043;23;20009;-81
2023/01/02 10:58:26;;;;;;;5.03;1.10;;;;;;;9.08;100.00;101654.00;6192507;23;20104;-82
2023/01/02 11:01:17;;;;;;;4.15;2.70;;;;;;;9.11;100.00;101647.88;6217390;23;20462;-80
2023/01/02 11:03:46;;;;;;;1.83;1.55;;;;;;;9.13;100.00;101642.91;6218880;23;20064;-78
2023/01/02 11:06:21;;;;;;;10.15;1.25;;;;;;;9.18;100.00;101645.09;6218378;23;20428;-80
2023/01/02 11:09:27;;;;;;;1.70;1.30;;;;;;;9.17;100.00;101638.28;6218784;23;20028;-81
2023/01/02 11:11:57;;;;;;;3.42;1.17;;;;;;;9.15;100.00;101645.91;6192351;23;20024;-76
2023/01/02 11:14:34;;;;;;;4.28;1.50;;;;;;;9.16;100.00;101650.06;6219096;23;20017;-81
2023/01/02 11:17:09;;;;;;;4.35;1.23;;;;;;;9.18;100.00;101656.47;6218792;23;20053;-80
2023/01/02 11:20:02;;;;;;;1.67;1.00;;;;;;;9.21;100.00;101657.53;6167714;23;20108;-80
2023/01/02 11:22:35;;;;;;;1.98;1.20;;;;;;;9.18;100.00;101666.34;6214901;23;20025;-80
2023/01/02 11:25:06;;;;;;;2.45;1.10;;;;;;;9.19;100.00;101659.88;6219010;23;20014;-83
2023/01/02 11:27:35;;;;;;;2.73;1.40;;;;;;;9.16;100.00;101663.34;6193482;23;20020;-82
2023/01/02 11:30:06;;;;;;;5.90;1.38;;;;;;;9.16;100.00;101666.00;6193479;23;20228;-81
2023/01/02 11:32:38;;;;;;;3.13;1.50;;;;;;;9.19;100.00;101665.94;6219201;23;20028;-83
2023/01/02 11:35:35;;;;;;;3.55;1.77;;;;;;;9.25;100.00;101672.25;6192748;23;20104;-82
2023/01/02 11:38:02;;;;;;;6.03;1.58;;;;;;;9.29;100.00;101685.50;6193342;23;20124;-83
2023/01/02 11:40:30;;;;;;;4.38;1.83;;;;;;;9.29;100.00;101686.25;6221155;23;20023;-84
2023/01/02 11:45:51;;;;;;;3.25;1.55;;;;;;;9.33;100.00;101692.25;6221940;23;20024;-82